Time,TemperatureF,DewpointF,PressureIn,WindDirection,WindDirectionDegrees,WindSpeedMPH,WindSpeedGustMPH,Humidity,HourlyPrecipIn,Conditions,Clouds,dailyrainin,SoftwareType,DateUTC
2013-04-26 00:01:00,51.0,47.0,30.14,NNE,12,0.0,1.0,87,0.00,,,0.00,,2013-04-26 07:01:00,
2013-04-26 00:11:00,51.0,47.0,30.14,NNE,12,0.0,1.0,87,0.00,,,0.00,,2013-04-26 07:11:00,
2013-04-26 00:22:00,51.0,47.0,30.14,NNE,12,0.0,1.0,87,0.00,,,0.00,,2013-04-26 07:22:00,
2013-04-26 00:31:00,51.0,47.0,30.14,NNE,12,0.0,1.0,85,0.00,,,0.00,,2013-04-26 07:31:00,
2013-04-26 00:42:00,51.0,47.0,30.14,NNE,12,0.0,1.0,85,0.00,,,0.00,,2013-04-26 07:42:00,
2013-04-26 00:52:00,51.0,47.0,30.14,NNE,12,0.0,1.0,85,0.00,,,0.00,,2013-04-26 07:52:00,
2013-04-26 01:02:00,50.0,46.0,30.15,NNE,12,0.0,1.0,87,0.00,,,0.00,,2013-04-26 08:02:00,
2013-04-26 01:11:00,50.0,46.0,30.15,NNE,12,0.0,1.0,87,0.00,,,0.00,,2013-04-26 08:11:00,
2013-04-26 01:21:00,50.0,46.0,30.15,NNE,12,0.0,1.0,87,0.00,,,0.00,,2013-04-26 08:21:00,
2013-04-26 01:31:00,48.0,45.0,30.16,NNE,12,0.0,0.0,90,0.00,,,0.00,,2013-04-26 08:31:00,
2013-04-26 01:42:00,48.0,45.0,30.16,NNE,12,0.0,0.0,90,0.00,,,0.00,,2013-04-26 08:42:00,
2013-04-26 01:52:00,48.0,45.0,30.16,NNE,12,0.0,0.0,90,0.00,,,0.00,,2013-04-26 08:52:00,
2013-04-26 02:01:00,47.0,44.0,30.16,ENE,61,2.0,3.0,90,0.00,,,0.00,,2013-04-26 09:01:00,
2013-04-26 02:11:00,47.0,44.0,30.16,ENE,61,2.0,3.0,90,0.00,,,0.00,,2013-04-26 09:11:00,
2013-04-26 02:21:00,47.0,44.0,30.16,ENE,61,2.0,3.0,90,0.00,,,0.00,,2013-04-26 09:21:00,
2013-04-26 02:32:00,47.0,45.0,30.17,ENE,60,0.0,1.0,92,0.00,,,0.00,,2013-04-26 09:32:00,
2013-04-26 02:42:00,47.0,45.0,30.17,ENE,60,0.0,1.0,92,0.00,,,0.00,,2013-04-26 09:42:00,
2013-04-26 02:53:00,47.0,45.0,30.17,ENE,60,0.0,1.0,92,0.00,,,0.00,,2013-04-26 09:53:00,
2013-04-26 03:02:00,46.0,44.0,30.17,ENE,61,0.0,0.0,92,0.00,,,0.00,,2013-04-26 10:02:00,
2013-04-26 03:12:00,46.0,44.0,30.17,ENE,61,0.0,0.0,92,0.00,,,0.00,,2013-04-26 10:12:00,
2013-04-26 03:22:00,46.0,44.0,30.17,ENE,61,0.0,0.0,92,0.00,,,0.00,,2013-04-26 10:22:00,
2013-04-26 03:33:00,46.0,44.0,30.17,ENE,61,0.0,0.0,92,0.00,,,0.00,,2013-04-26 10:33:00,
2013-04-26 03:41:00,46.0,44.0,30.17,ENE,61,0.0,0.0,92,0.00,,,0.00,,2013-04-26 10:41:00,
2013-04-26 04:02:00,45.0,43.0,30.19,ENE,60,0.0,0.0,93,0.00,,,0.00,,2013-04-26 11:02:00,
2013-04-26 04:11:00,45.0,43.0,30.19,ENE,60,0.0,0.0,93,0.00,,,0.00,,2013-04-26 11:11:00,
2013-04-26 04:22:00,45.0,43.0,30.19,ENE,60,0.0,0.0,93,0.00,,,0.00,,2013-04-26 11:22:00,
2013-04-26 04:32:00,45.0,43.0,30.19,ENE,60,0.0,0.0,93,0.00,,,0.00,,2013-04-26 11:32:00,
2013-04-26 04:41:00,45.0,43.0,30.19,ENE,60,0.0,0.0,93,0.00,,,0.00,,2013-04-26 11:41:00,
2013-04-26 06:01:00,43.0,42.0,30.21,ENE,60,0.0,1.0,95,0.00,,,0.00,,2013-04-26 13:01:00,
2013-04-26 06:11:00,43.0,42.0,30.21,ENE,60,0.0,1.0,95,0.00,,,0.00,,2013-04-26 13:11:00,
2013-04-26 06:21:00,43.0,42.0,30.21,ENE,60,0.0,1.0,95,0.00,,,0.00,,2013-04-26 13:21:00,
2013-04-26 06:31:00,43.0,42.0,30.22,ENE,60,0.0,1.0,95,0.00,,,0.00,,2013-04-26 13:31:00,
2013-04-26 06:41:00,43.0,42.0,30.22,ENE,60,0.0,1.0,95,0.00,,,0.00,,2013-04-26 13:41:00,
2013-04-26 06:52:00,43.0,42.0,30.22,ENE,60,0.0,1.0,95,0.00,,,0.00,,2013-04-26 13:52:00,
2013-04-26 07:01:00,42.0,41.0,30.22,ENE,61,0.0,0.0,96,0.00,,,0.00,,2013-04-26 14:01:00,
2013-04-26 07:11:00,42.0,41.0,30.22,ENE,61,0.0,0.0,96,0.00,,,0.00,,2013-04-26 14:11:00,
2013-04-26 07:21:00,42.0,41.0,30.22,ENE,61,0.0,0.0,96,0.00,,,0.00,,2013-04-26 14:21:00,
2013-04-26 07:31:00,44.0,43.0,30.23,NE,40,1.0,2.0,96,0.00,,,0.00,,2013-04-26 14:31:00,
2013-04-26 07:41:00,44.0,43.0,30.23,NE,40,1.0,2.0,96,0.00,,,0.00,,2013-04-26 14:41:00,
2013-04-26 07:52:00,44.0,43.0,30.23,NE,40,1.0,2.0,96,0.00,,,0.00,,2013-04-26 14:52:00,
2013-04-26 08:01:00,44.0,43.0,30.23,NE,40,1.0,2.0,96,0.00,,,0.00,,2013-04-26 15:01:00,
2013-04-26 08:11:00,44.0,43.0,30.23,NE,40,1.0,2.0,96,0.00,,,0.00,,2013-04-26 15:11:00,
2013-04-26 08:33:00,52.0,48.0,30.24,NE,41,0.0,1.0,87,0.00,,,0.00,,2013-04-26 15:33:00,
2013-04-26 08:43:00,52.0,48.0,30.24,NE,41,0.0,1.0,87,0.00,,,0.00,,2013-04-26 15:43:00,
2013-04-26 08:53:00,52.0,48.0,30.24,NE,41,0.0,1.0,87,0.00,,,0.00,,2013-04-26 15:53:00,
2013-04-26 09:03:00,56.0,49.0,30.24,NE,41,0.0,1.0,78,0.00,,,0.00,,2013-04-26 16:03:00,
2013-04-26 09:12:00,56.0,49.0,30.24,NE,41,0.0,1.0,78,0.00,,,0.00,,2013-04-26 16:12:00,
2013-04-26 09:23:00,56.0,49.0,30.24,NE,41,0.0,1.0,78,0.00,,,0.00,,2013-04-26 16:23:00,
2013-04-26 09:33:00,56.0,49.0,30.24,NE,41,0.0,1.0,78,0.00,,,0.00,,2013-04-26 16:33:00,
2013-04-26 09:42:00,56.0,49.0,30.24,NE,41,0.0,1.0,78,0.00,,,0.00,,2013-04-26 16:42:00,
2013-04-26 11:02:00,65.0,50.0,30.23,WSW,250,1.0,3.0,58,0.00,,,0.00,,2013-04-26 18:02:00,
2013-04-26 11:11:00,65.0,50.0,30.23,WSW,250,1.0,3.0,58,0.00,,,0.00,,2013-04-26 18:11:00,
2013-04-26 11:22:00,65.0,50.0,30.23,WSW,250,1.0,3.0,58,0.00,,,0.00,,2013-04-26 18:22:00,
2013-04-26 11:33:00,68.0,51.0,30.23,South,188,2.0,4.0,54,0.00,,,0.00,,2013-04-26 18:33:00,
2013-04-26 11:41:00,68.0,51.0,30.23,South,188,2.0,4.0,54,0.00,,,0.00,,2013-04-26 18:41:00,
2013-04-26 11:52:00,68.0,51.0,30.23,South,188,2.0,4.0,54,0.00,,,0.00,,2013-04-26 18:52:00,
2013-04-26 12:01:00,68.0,51.0,30.23,South,188,2.0,4.0,54,0.00,,,0.00,,2013-04-26 19:01:00,
2013-04-26 12:11:00,68.0,51.0,30.23,South,188,2.0,4.0,54,0.00,,,0.00,,2013-04-26 19:11:00,
2013-04-26 12:32:00,73.0,52.0,30.22,WSW,255,1.0,4.0,48,0.00,,,0.00,,2013-04-26 19:32:00,
2013-04-26 12:42:00,73.0,52.0,30.22,WSW,255,1.0,4.0,48,0.00,,,0.00,,2013-04-26 19:42:00,
2013-04-26 12:52:00,73.0,52.0,30.22,WSW,255,1.0,4.0,48,0.00,,,0.00,,2013-04-26 19:52:00,
2013-04-26 13:02:00,73.0,52.0,30.22,WSW,255,1.0,4.0,48,0.00,,,0.00,,2013-04-26 20:02:00,
2013-04-26 13:11:00,73.0,52.0,30.22,WSW,255,1.0,4.0,48,0.00,,,0.00,,2013-04-26 20:11:00,
2013-04-26 13:32:00,75.0,53.0,30.20,NE,40,1.0,3.0,47,0.00,,,0.00,,2013-04-26 20:32:00,
2013-04-26 13:42:00,75.0,53.0,30.20,NE,40,1.0,3.0,47,0.00,,,0.00,,2013-04-26 20:42:00,
2013-04-26 13:52:00,75.0,53.0,30.20,NE,40,1.0,3.0,47,0.00,,,0.00,,2013-04-26 20:52:00,
2013-04-26 14:01:00,78.0,52.0,30.20,South,187,1.0,5.0,40,0.00,,,0.00,,2013-04-26 21:01:00,
2013-04-26 14:11:00,78.0,52.0,30.20,South,187,1.0,5.0,40,0.00,,,0.00,,2013-04-26 21:11:00,
2013-04-26 14:21:00,78.0,52.0,30.20,South,187,1.0,5.0,40,0.00,,,0.00,,2013-04-26 21:21:00,
2013-04-26 14:32:00,79.0,43.0,30.19,East,91,2.0,4.0,28,0.00,,,0.00,,2013-04-26 21:32:00,
2013-04-26 14:42:00,79.0,43.0,30.19,East,91,2.0,4.0,28,0.00,,,0.00,,2013-04-26 21:42:00,
2013-04-26 14:53:00,79.0,43.0,30.19,East,91,2.0,4.0,28,0.00,,,0.00,,2013-04-26 21:53:00,
2013-04-26 15:02:00,79.0,43.0,30.19,East,91,2.0,4.0,28,0.00,,,0.00,,2013-04-26 22:02:00,
2013-04-26 15:12:00,79.0,43.0,30.19,East,91,2.0,4.0,28,0.00,,,0.00,,2013-04-26 22:12:00,
2013-04-26 15:33:00,81.0,48.0,30.18,WNW,290,3.0,5.0,32,0.00,,,0.00,,2013-04-26 22:33:00,
2013-04-26 15:42:00,81.0,48.0,30.18,WNW,290,3.0,5.0,32,0.00,,,0.00,,2013-04-26 22:42:00,
2013-04-26 15:52:00,81.0,48.0,30.18,WNW,290,3.0,5.0,32,0.00,,,0.00,,2013-04-26 22:52:00,
2013-04-26 16:01:00,81.0,48.0,30.18,WNW,290,3.0,5.0,32,0.00,,,0.00,,2013-04-26 23:01:00,
2013-04-26 16:11:00,81.0,48.0,30.18,WNW,290,3.0,5.0,32,0.00,,,0.00,,2013-04-26 23:11:00,
2013-04-26 16:32:00,82.0,46.0,30.16,NW,313,3.0,7.0,28,0.00,,,0.00,,2013-04-26 23:32:00,
2013-04-26 16:42:00,82.0,46.0,30.16,NW,313,3.0,7.0,28,0.00,,,0.00,,2013-04-26 23:42:00,
2013-04-26 16:52:00,82.0,46.0,30.16,NW,313,3.0,7.0,28,0.00,,,0.00,,2013-04-26 23:52:00,
2013-04-26 17:01:00,82.0,46.0,30.16,NW,313,3.0,7.0,28,0.00,,,0.00,,2013-04-27 00:01:00,
2013-04-26 17:11:00,82.0,46.0,30.16,NW,313,3.0,7.0,28,0.00,,,0.00,,2013-04-27 00:11:00,
2013-04-26 18:01:00,82.0,39.0,30.16,NW,319,3.0,8.0,22,0.00,,,0.00,,2013-04-27 01:01:00,
2013-04-26 18:11:00,82.0,39.0,30.16,NW,319,3.0,8.0,22,0.00,,,0.00,,2013-04-27 01:11:00,
2013-04-26 18:21:00,82.0,39.0,30.16,NW,319,3.0,8.0,22,0.00,,,0.00,,2013-04-27 01:21:00,
2013-04-26 18:32:00,82.0,43.0,30.16,North,355,3.0,7.0,25,0.00,,,0.00,,2013-04-27 01:32:00,
2013-04-26 18:41:00,82.0,43.0,30.16,North,355,3.0,7.0,25,0.00,,,0.00,,2013-04-27 01:41:00,
2013-04-26 18:52:00,82.0,43.0,30.16,North,355,3.0,7.0,25,0.00,,,0.00,,2013-04-27 01:52:00,
2013-04-26 19:01:00,82.0,43.0,30.16,North,355,3.0,7.0,25,0.00,,,0.00,,2013-04-27 02:01:00,
2013-04-26 19:11:00,82.0,43.0,30.16,North,355,3.0,7.0,25,0.00,,,0.00,,2013-04-27 02:11:00,
2013-04-26 21:02:00,67.0,49.0,30.20,ENE,76,3.0,7.0,52,0.00,,,0.00,,2013-04-27 04:02:00,
2013-04-26 21:12:00,67.0,49.0,30.20,ENE,76,3.0,7.0,52,0.00,,,0.00,,2013-04-27 04:12:00,
2013-04-26 21:22:00,67.0,49.0,30.20,ENE,76,3.0,7.0,52,0.00,,,0.00,,2013-04-27 04:22:00,
2013-04-26 21:33:00,65.0,50.0,30.22,NW,314,0.0,2.0,59,0.00,,,0.00,,2013-04-27 04:33:00,
2013-04-26 21:42:00,65.0,50.0,30.22,NW,314,0.0,2.0,59,0.00,,,0.00,,2013-04-27 04:42:00,
2013-04-26 21:53:00,65.0,50.0,30.22,NW,314,0.0,2.0,59,0.00,,,0.00,,2013-04-27 04:53:00,
2013-04-26 22:02:00,61.0,48.0,30.23,NNE,19,2.0,4.0,62,0.00,,,0.00,,2013-04-27 05:02:00,
2013-04-26 22:11:00,61.0,48.0,30.23,NNE,19,2.0,4.0,62,0.00,,,0.00,,2013-04-27 05:11:00,
2013-04-26 22:22:00,61.0,48.0,30.23,NNE,19,2.0,4.0,62,0.00,,,0.00,,2013-04-27 05:22:00,
2013-04-26 22:31:00,59.0,50.0,30.24,West,266,1.0,2.0,71,0.00,,,0.00,,2013-04-27 05:31:00,
2013-04-26 22:42:00,59.0,50.0,30.24,West,266,1.0,2.0,71,0.00,,,0.00,,2013-04-27 05:42:00,
2013-04-26 22:52:00,59.0,50.0,30.24,West,266,1.0,2.0,71,0.00,,,0.00,,2013-04-27 05:52:00,
2013-04-26 23:01:00,57.0,49.0,30.25,ENE,69,0.0,2.0,75,0.00,,,0.00,,2013-04-27 06:01:00,
2013-04-26 23:11:00,57.0,49.0,30.25,ENE,69,0.0,2.0,75,0.00,,,0.00,,2013-04-27 06:11:00,
2013-04-26 23:22:00,57.0,49.0,30.25,ENE,69,0.0,2.0,75,0.00,,,0.00,,2013-04-27 06:22:00,
2013-04-26 23:32:00,57.0,49.0,30.25,ENE,69,0.0,2.0,75,0.00,,,0.00,,2013-04-27 06:32:00,
2013-04-26 23:41:00,57.0,49.0,30.25,ENE,69,0.0,2.0,75,0.00,,,0.00,,2013-04-27 06:41:00,